Terminal Aerodrome Forecast
Issued by NWS Sterling, VA

Home | Current Version | Previous Version | Text Only | Print | Product List | Glossary On
Versions: 1 2 3 4 5 6 7 8 9 10 11 12 13 14 15 16 17 18 19 20 21 22 23 24 25
000
FTUS41 KLWX 170512 AAA
TAFMRB
TAF AMD
KMRB 170512Z 1705/1724 27004KT P6SM VCTS SCT050CB
     FM170900 VRB03KT P6SM BKN110
     FM171300 00000KT P6SM BKN050
     FM171800 VRB03KT P6SM -SHRA VCTS BKN035CB
     FM172200 24004KT P6SM SHRA BKN030=

USA.gov is the U.S. government's official web portal to all federal, state and local government web resources and services.